Time;durP1;ratioP1;P1;durP2;ratioP2;P2;SDS_P1;SDS_P2;PMS_P1;PMS_P2;Temp;Humidity;BMP_temperature;BMP_pressure;BME280_temperature;BME280_humidity;BME280_pressure;Samples;Min_cycle;Max_cycle;Signal;HPM_P1;HPM_P2
2022/08/04 00:00:53;;;;;;;2.75;2.10;;;28.00;1.00;;;;;;4954892;29;20619;-81
2022/08/04 00:03:24;;;;;;;2.75;1.60;;;27.90;1.00;;;;;;4954913;29;20031;-80
2022/08/04 00:05:59;;;;;;;2.53;1.60;;;27.90;1.00;;;;;;4954799;29;20035;-81
2022/08/04 00:08:36;;;;;;;2.20;1.98;;;27.90;1.00;;;;;;4954780;29;20039;-81
2022/08/04 00:11:03;;;;;;;4.45;1.80;;;27.90;1.00;;;;;;4954568;29;20119;-81
2022/08/04 00:13:41;;;;;;;5.47;2.28;;;27.90;1.00;;;;;;4954656;29;20071;-81
2022/08/04 00:16:09;;;;;;;1.88;1.77;;;27.90;1.00;;;;;;4954775;29;20031;-81
2022/08/04 00:19:03;;;;;;;1.92;1.67;;;27.80;1.00;;;;;;4954400;29;20036;-81
2022/08/04 00:21:33;;;;;;;1.90;1.55;;;27.80;1.00;;;;;;4952848;29;20041;-81
2022/08/04 00:24:00;;;;;;;1.75;1.60;;;27.70;1.00;;;;;;4954663;28;20036;-80
2022/08/04 00:26:26;;;;;;;1.77;1.67;;;27.80;1.00;;;;;;4954453;28;20051;-80
2022/08/04 00:28:52;;;;;;;2.38;1.52;;;27.80;1.00;;;;;;4954558;28;20106;-81
2022/08/04 00:31:19;;;;;;;2.08;1.70;;;27.80;1.00;;;;;;4935102;29;20042;-81
2022/08/04 00:33:45;;;;;;;3.08;1.70;;;27.80;1.00;;;;;;4934839;29;20046;-81
2022/08/04 00:36:12;;;;;;;2.75;1.40;;;27.80;1.00;;;;;;4935730;29;20100;-81
2022/08/04 00:38:42;;;;;;;2.65;1.60;;;27.80;1.00;;;;;;5012098;28;20073;-81
2022/08/04 00:41:52;;;;;;;2.85;1.40;;;27.80;1.00;;;;;;5015025;28;20022;-80
2022/08/04 00:44:36;;;;;;;1.60;1.50;;;27.70;1.00;;;;;;5014575;28;20022;-81
2022/08/04 00:47:36;;;;;;;1.88;1.70;;;27.80;1.00;;;;;;5014648;28;20104;-81
2022/08/04 00:50:34;;;;;;;2.85;1.50;;;27.80;1.00;;;;;;5014462;28;20022;-81
2022/08/04 00:53:10;;;;;;;2.17;1.60;;;27.80;1.00;;;;;;5014407;28;20041;-80
2022/08/04 00:55:54;;;;;;;1.85;1.38;;;27.80;1.00;;;;;;5014535;28;20022;-80
2022/08/04 00:58:28;;;;;;;1.85;1.48;;;27.80;1.00;;;;;;5014772;28;20026;-81
2022/08/04 01:00:59;;;;;;;1.70;1.42;;;27.80;1.00;;;;;;5014247;28;20068;-81
2022/08/04 01:04:09;;;;;;;2.38;1.50;;;27.80;1.00;;;;;;5012441;28;20397;-81
2022/08/04 01:06:37;;;;;;;2.25;1.60;;;27.80;1.00;;;;;;5008166;28;20041;-80
2022/08/04 01:09:15;;;;;;;2.38;1.60;;;27.70;1.00;;;;;;5014094;28;20049;-81
2022/08/04 01:12:06;;;;;;;2.22;1.77;;;27.70;1.00;;;;;;5014115;28;20033;-81
2022/08/04 01:14:47;;;;;;;2.30;1.50;;;27.70;1.00;;;;;;5014096;28;20040;-81
2022/08/04 01:17:39;;;;;;;2.55;1.73;;;27.70;1.00;;;;;;5013890;28;20026;-81
2022/08/04 01:20:08;;;;;;;3.03;1.70;;;27.70;1.00;;;;;;5014190;28;20041;-80
2022/08/04 01:22:33;;;;;;;1.77;1.67;;;27.60;1.00;;;;;;5013977;28;20022;-81
2022/08/04 01:25:34;;;;;;;2.78;1.70;;;27.60;1.00;;;;;;5013911;28;20028;-80
2022/08/04 01:28:33;;;;;;;1.67;1.58;;;27.70;1.00;;;;;;5016543;28;20037;-81
2022/08/04 01:31:24;;;;;;;2.65;1.70;;;27.70;1.00;;;;;;5033024;28;20565;-80
2022/08/04 01:33:52;;;;;;;3.92;1.90;;;27.60;1.00;;;;;;4953241;29;20074;-81
2022/08/04 01:36:22;;;;;;;1.98;1.77;;;27.60;1.00;;;;;;4952611;28;20381;-81
2022/08/04 01:38:48;;;;;;;1.88;1.60;;;27.60;1.00;;;;;;4953040;29;20696;-81
2022/08/04 01:41:17;;;;;;;2.88;1.73;;;27.60;1.00;;;;;;4953164;29;20062;-81
2022/08/04 01:43:45;;;;;;;3.08;1.90;;;27.60;1.00;;;;;;4953257;29;20078;-81
2022/08/04 01:46:13;;;;;;;2.95;2.10;;;27.60;1.00;;;;;;4952714;29;20042;-81
2022/08/04 01:48:41;;;;;;;2.53;1.80;;;27.50;1.00;;;;;;4953110;29;20480;-81
2022/08/04 01:51:08;;;;;;;2.38;1.95;;;27.50;1.00;;;;;;4953346;29;20035;-81
2022/08/04 01:53:42;;;;;;;2.75;1.60;;;27.40;1.00;;;;;;4952889;29;20047;-81
2022/08/04 01:56:10;;;;;;;2.00;1.90;;;27.40;1.00;;;;;;4952938;29;20019;-81
2022/08/04 01:58:38;;;;;;;2.10;1.90;;;27.40;1.00;;;;;;4953342;29;20126;-81
2022/08/04 02:01:08;;;;;;;2.10;1.90;;;27.30;1.00;;;;;;4952442;29;20547;-81
2022/08/04 02:03:38;;;;;;;2.30;1.85;;;27.20;1.00;;;;;;4952736;29;20418;-80
2022/08/04 02:06:30;;;;;;;3.92;1.85;;;27.20;1.00;;;;;;4952675;29;20546;-81
2022/08/04 02:09:06;;;;;;;1.83;1.73;;;27.20;1.00;;;;;;4952727;29;20036;-81
2022/08/04 02:11:31;;;;;;;3.50;1.83;;;27.20;1.00;;;;;;5018189;28;20033;-81
2022/08/04 02:14:39;;;;;;;2.13;1.83;;;27.20;1.00;;;;;;5032722;28;20107;-81
2022/08/04 02:17:38;;;;;;;1.95;1.75;;;27.20;1.00;;;;;;5032738;28;20026;-81
2022/08/04 02:20:08;;;;;;;3.35;1.85;;;27.20;1.00;;;;;;5032028;28;20037;-81
2022/08/04 02:22:52;;;;;;;2.00;1.88;;;27.10;1.00;;;;;;5032685;28;20098;-81
2022/08/04 02:25:23;;;;;;;2.40;1.80;;;27.10;1.00;;;;;;5032772;28;20029;-81
2022/08/04 02:27:49;;;;;;;3.45;1.90;;;26.90;1.00;;;;;;5033766;28;20049;-81
2022/08/04 02:30:16;;;;;;;2.58;2.05;;;26.90;1.00;;;;;;5029552;28;20045;-81
2022/08/04 02:32:44;;;;;;;2.45;1.85;;;26.90;1.00;;;;;;5013156;28;20034;-81
2022/08/04 02:35:18;;;;;;;2.00;1.80;;;26.80;1.00;;;;;;5012849;28;20025;-81
2022/08/04 02:37:52;;;;;;;3.67;2.10;;;26.80;1.00;;;;;;5012561;28;20030;-81
2022/08/04 02:40:20;;;;;;;2.22;1.65;;;26.90;1.00;;;;;;5012218;28;20026;-81
2022/08/04 02:42:48;;;;;;;1.98;1.77;;;26.80;1.00;;;;;;5012460;28;20022;-81
2022/08/04 02:45:18;;;;;;;2.10;1.90;;;26.80;1.00;;;;;;5012348;28;20034;-80
2022/08/04 02:47:45;;;;;;;2.08;1.92;;;26.70;1.00;;;;;;5011669;28;20026;-81
2022/08/04 02:50:13;;;;;;;3.00;2.05;;;26.70;1.00;;;;;;5012782;28;20018;-81
2022/08/04 02:52:40;;;;;;;3.67;2.00;;;26.70;1.00;;;;;;5012552;28;20026;-81
2022/08/04 02:55:08;;;;;;;2.33;2.13;;;26.70;1.00;;;;;;5012669;28;20096;-80
2022/08/04 02:57:36;;;;;;;4.22;2.17;;;26.60;1.00;;;;;;5012417;28;20026;-80
2022/08/04 03:00:12;;;;;;;2.92;2.00;;;26.50;1.00;;;;;;5010678;28;20033;-81
2022/08/04 03:03:15;;;;;;;2.72;2.10;;;26.50;1.00;;;;;;5012359;28;20025;-81
2022/08/04 03:06:04;;;;;;;3.17;2.00;;;26.50;1.00;;;;;;5012632;28;20030;-81
2022/08/04 03:08:35;;;;;;;3.10;2.08;;;26.50;1.00;;;;;;5012805;28;20037;-80
2022/08/04 03:11:38;;;;;;;2.42;2.00;;;26.50;1.00;;;;;;5012351;28;20486;-80
2022/08/04 03:14:29;;;;;;;2.92;2.17;;;26.50;1.00;;;;;;5011664;28;20048;-81
2022/08/04 03:17:31;;;;;;;2.72;2.00;;;26.50;1.00;;;;;;5012732;28;20022;-81
2022/08/04 03:20:11;;;;;;;2.78;2.00;;;26.50;1.00;;;;;;5012216;28;20033;-80
2022/08/04 03:23:10;;;;;;;2.88;2.10;;;26.50;1.00;;;;;;5012314;28;20037;-81
2022/08/04 03:25:43;;;;;;;2.97;2.03;;;26.50;1.00;;;;;;5012089;28;20029;-80
2022/08/04 03:28:21;;;;;;;2.83;2.00;;;26.50;1.00;;;;;;5015738;28;20037;-81
2022/08/04 03:31:10;;;;;;;3.25;2.10;;;26.50;1.00;;;;;;5031677;28;20040;-81
2022/08/04 03:34:05;;;;;;;4.88;2.20;;;26.50;1.00;;;;;;5031951;28;20030;-80
2022/08/04 03:37:00;;;;;;;3.88;2.40;;;26.50;1.00;;;;;;4951788;29;20115;-81
2022/08/04 03:39:58;;;;;;;3.70;2.40;;;26.40;1.00;;;;;;4939016;29;20065;-81
2022/08/04 03:42:46;;;;;;;3.10;2.40;;;26.50;1.00;;;;;;4951519;29;20089;-81
2022/08/04 03:45:33;;;;;;;3.67;2.30;;;26.50;1.00;;;;;;4941829;29;20039;-81
2022/08/04 03:48:26;;;;;;;2.65;2.45;;;26.40;1.00;;;;;;4951442;29;20067;-81
2022/08/04 03:54:20;;;;;;;3.08;2.55;;;26.30;1.00;;;;;;4951511;29;20051;-81
2022/08/04 03:57:08;;;;;;;2.72;2.20;;;26.30;1.00;;;;;;4951145;29;20408;-81
2022/08/04 03:59:34;;;;;;;4.60;2.97;;;26.20;1.00;;;;;;4953828;29;20139;-81
2022/08/04 04:02:38;;;;;;;6.40;2.92;;;26.20;1.00;;;;;;4954885;29;20027;-81
2022/08/04 04:05:54;;;;;;;4.28;3.42;;;26.10;1.00;;;;;;4953683;29;20043;-81
2022/08/04 04:08:26;;;;;;;3.05;2.60;;;26.10;1.00;;;;;;4897825;29;20044;-81
2022/08/04 04:11:36;;;;;;;3.90;2.75;;;26.10;1.00;;;;;;4897379;29;20048;-81
2022/08/04 04:14:29;;;;;;;4.88;3.10;;;26.10;1.00;;;;;;4951671;28;20046;-81
2022/08/04 04:17:00;;;;;;;5.25;3.25;;;26.10;1.00;;;;;;4993527;28;20030;-82
2022/08/04 04:19:43;;;;;;;3.83;3.08;;;26.10;1.00;;;;;;4993702;28;20026;-80
2022/08/04 04:22:11;;;;;;;4.03;3.00;;;26.10;1.00;;;;;;4993216;28;20031;-80
2022/08/04 04:25:14;;;;;;;3.60;3.25;;;26.10;1.00;;;;;;4992837;28;20499;-80
2022/08/04 04:28:17;;;;;;;4.45;3.22;;;26.10;1.00;;;;;;4992986;28;20129;-81
2022/08/04 04:30:56;;;;;;;4.15;3.30;;;26.10;1.00;;;;;;4993003;28;20049;-81
2022/08/04 04:33:30;;;;;;;5.22;2.90;;;26.00;1.00;;;;;;4993565;28;20167;-81
2022/08/04 04:36:10;;;;;;;3.63;2.70;;;26.00;1.00;;;;;;4993261;28;20440;-81
2022/08/04 04:38:41;;;;;;;2.88;2.40;;;25.90;1.00;;;;;;4993081;28;20133;-81
2022/08/04 04:41:34;;;;;;;3.33;2.35;;;26.00;1.00;;;;;;4992697;28;20444;-81
2022/08/04 04:44:11;;;;;;;4.55;2.30;;;26.00;1.00;;;;;;5014687;28;20108;-81
2022/08/04 04:46:42;;;;;;;4.68;2.38;;;26.00;1.00;;;;;;5034762;28;20112;-81
2022/08/04 04:49:36;;;;;;;2.85;2.47;;;25.90;1.00;;;;;;5034510;28;20052;-80
2022/08/04 04:52:16;;;;;;;4.60;2.67;;;25.90;1.00;;;;;;5034343;28;20037;-80
2022/08/04 04:54:57;;;;;;;3.92;2.75;;;25.90;1.00;;;;;;5034057;28;20063;-81
2022/08/04 04:57:28;;;;;;;3.55;2.58;;;25.90;1.00;;;;;;5034409;28;20032;-81
2022/08/04 05:00:01;;;;;;;4.35;2.70;;;25.90;1.00;;;;;;5034248;28;20079;-81
2022/08/04 05:03:00;;;;;;;3.03;2.63;;;25.90;1.00;;;;;;5034119;28;20021;-81
2022/08/04 05:05:29;;;;;;;5.07;2.90;;;25.90;1.00;;;;;;5034012;28;20032;-81
2022/08/04 05:08:14;;;;;;;5.53;2.92;;;26.00;1.00;;;;;;5034143;28;20064;-81
2022/08/04 05:11:12;;;;;;;7.13;2.90;;;26.10;1.00;;;;;;5032921;28;20104;-80
2022/08/04 05:13:46;;;;;;;5.80;2.90;;;26.20;1.00;;;;;;4953406;29;20079;-81
2022/08/04 05:16:29;;;;;;;3.90;2.92;;;26.20;1.00;;;;;;4953372;29;20040;-81
2022/08/04 05:19:08;;;;;;;3.33;3.00;;;26.20;1.00;;;;;;4953704;29;20027;-81
2022/08/04 05:21:44;;;;;;;5.53;3.20;;;26.10;1.00;;;;;;4953746;29;20091;-80
2022/08/04 05:24:12;;;;;;;3.20;2.70;;;26.10;1.00;;;;;;4953014;29;20035;-81
2022/08/04 05:26:44;;;;;;;3.42;3.15;;;26.20;1.00;;;;;;4953192;29;20051;-80
2022/08/04 05:29:21;;;;;;;3.83;3.05;;;26.20;1.00;;;;;;4953094;28;20043;-80
2022/08/04 05:31:52;;;;;;;4.25;3.40;;;26.20;1.00;;;;;;4953357;29;20031;-81
2022/08/04 05:34:32;;;;;;;6.03;3.20;;;26.20;1.00;;;;;;4953611;29;20066;-81
2022/08/04 05:37:05;;;;;;;7.18;3.50;;;26.10;1.00;;;;;;4953044;29;20036;-81
2022/08/04 05:39:37;;;;;;;4.35;2.95;;;26.10;1.00;;;;;;4953102;29;20027;-81
2022/08/04 05:42:04;;;;;;;3.78;3.20;;;26.00;1.00;;;;;;4953127;29;20031;-81
2022/08/04 05:44:32;;;;;;;5.78;3.38;;;26.00;1.00;;;;;;4953066;29;20039;-81
2022/08/04 05:46:58;;;;;;;4.68;3.45;;;26.00;1.00;;;;;;4953151;29;20023;-81
2022/08/04 05:49:27;;;;;;;5.68;3.20;;;26.00;1.00;;;;;;4999864;28;20033;-81
2022/08/04 05:51:55;;;;;;;4.78;2.92;;;26.00;1.00;;;;;;5033298;28;20501;-81
2022/08/04 05:54:22;;;;;;;4.85;3.50;;;26.00;1.00;;;;;;5033204;28;20475;-81
2022/08/04 05:56:48;;;;;;;5.88;3.40;;;26.10;1.00;;;;;;5032969;28;20026;-81
2022/08/04 05:59:16;;;;;;;5.45;3.10;;;26.00;1.00;;;;;;5033499;28;20033;-81
2022/08/04 06:01:44;;;;;;;6.50;3.40;;;26.20;1.00;;;;;;5032948;28;20060;-81
2022/08/04 06:04:11;;;;;;;8.27;3.53;;;26.40;1.00;;;;;;5033252;28;20064;-80
2022/08/04 06:06:39;;;;;;;4.00;3.50;;;26.50;1.00;;;;;;5032658;28;20130;-81
2022/08/04 06:09:04;;;;;;;4.53;3.63;;;26.60;1.00;;;;;;5033242;28;20099;-81
2022/08/04 06:11:31;;;;;;;8.10;3.47;;;26.60;1.00;;;;;;5032759;28;20482;-81
2022/08/04 06:14:00;;;;;;;3.80;3.50;;;26.70;1.00;;;;;;5032684;28;20029;-80
2022/08/04 06:16:32;;;;;;;3.95;3.47;;;26.80;1.00;;;;;;5032746;28;20026;-81
2022/08/04 06:19:03;;;;;;;4.63;3.28;;;26.90;1.00;;;;;;5032706;28;20370;-81
2022/08/04 06:21:30;;;;;;;5.07;3.60;;;27.10;1.00;;;;;;5032187;28;20024;-80
2022/08/04 06:23:57;;;;;;;7.63;3.17;;;27.10;1.00;;;;;;5032935;28;20025;-80
2022/08/04 06:26:25;;;;;;;4.22;3.70;;;27.20;1.00;;;;;;5032376;28;20057;-81
2022/08/04 06:28:51;;;;;;;5.72;3.45;;;27.30;1.00;;;;;;5042668;28;20485;-81
2022/08/04 06:31:41;;;;;;;6.72;3.45;;;27.40;1.00;;;;;;5012738;28;20068;-81
2022/08/04 06:34:10;;;;;;;5.25;3.22;;;27.50;1.00;;;;;;5012279;28;20030;-81
2022/08/04 06:36:37;;;;;;;5.57;3.85;;;27.60;1.00;;;;;;5011970;28;20024;-81
2022/08/04 06:39:04;;;;;;;6.43;3.95;;;27.70;1.00;;;;;;5012066;28;20038;-81
2022/08/04 06:41:30;;;;;;;9.38;3.75;;;27.80;1.00;;;;;;5029518;28;20494;-79
2022/08/04 06:44:02;;;;;;;6.63;3.67;;;27.80;1.00;;;;;;5032290;28;20048;-80
2022/08/04 06:46:28;;;;;;;6.13;3.67;;;27.90;1.00;;;;;;5032197;28;20021;-80
2022/08/04 06:48:55;;;;;;;7.35;3.75;;;27.90;1.00;;;;;;5032117;28;20033;-80
2022/08/04 06:51:22;;;;;;;14.32;4.25;;;28.10;1.00;;;;;;5032361;28;20591;-80
2022/08/04 06:53:47;;;;;;;13.23;3.97;;;28.10;1.00;;;;;;5032156;28;20077;-80
2022/08/04 06:56:18;;;;;;;9.55;3.72;;;28.10;1.00;;;;;;5031998;28;20037;-80
2022/08/04 06:58:49;;;;;;;13.43;4.03;;;28.20;1.00;;;;;;5031960;28;20037;-80
2022/08/04 07:01:18;;;;;;;9.35;4.28;;;28.30;1.00;;;;;;5032111;28;20026;-80
2022/08/04 07:03:44;;;;;;;13.23;4.70;;;28.20;1.00;;;;;;5031089;28;20092;-80
2022/08/04 07:06:10;;;;;;;9.07;3.80;;;28.20;1.00;;;;;;5031091;28;20026;-80
2022/08/04 07:08:36;;;;;;;12.00;4.20;;;28.30;1.00;;;;;;5025184;28;20499;-78
2022/08/04 07:11:02;;;;;;;7.80;3.70;;;28.40;1.00;;;;;;5014633;28;20037;-80
2022/08/04 07:13:31;;;;;;;11.23;4.07;;;28.50;1.00;;;;;;5030757;28;20656;-81
2022/08/04 07:15:58;;;;;;;7.82;4.00;;;28.60;1.00;;;;;;5031185;28;20075;-81
2022/08/04 07:18:24;;;;;;;5.32;3.83;;;28.80;1.00;;;;;;5031126;28;20034;-82
2022/08/04 07:20:50;;;;;;;5.82;3.20;;;28.80;1.00;;;;;;5031005;28;20076;-82
2022/08/04 07:23:23;;;;;;;5.63;3.10;;;28.90;1.00;;;;;;5031020;28;20045;-81
2022/08/04 07:25:54;;;;;;;9.82;3.22;;;29.00;1.00;;;;;;5030803;28;20037;-81
2022/08/04 07:28:20;;;;;;;6.93;2.97;;;29.10;1.00;;;;;;5030747;28;20036;-82
2022/08/04 07:30:48;;;;;;;7.05;3.40;;;29.10;1.00;;;;;;5030919;28;20029;-80
2022/08/04 07:33:16;;;;;;;5.45;3.20;;;29.30;1.00;;;;;;5031740;28;20409;-82
2022/08/04 07:35:43;;;;;;;3.88;2.78;;;29.40;1.00;;;;;;5035254;28;20072;-80
2022/08/04 07:38:10;;;;;;;4.10;2.90;;;29.50;1.00;;;;;;5033681;28;20060;-80
2022/08/04 07:40:37;;;;;;;2.72;2.30;;;29.70;1.00;;;;;;5034903;28;20023;-82
2022/08/04 07:43:04;;;;;;;3.13;2.45;;;29.90;1.00;;;;;;5031572;28;20057;-82
2022/08/04 07:45:30;;;;;;;5.05;2.40;;;29.90;1.00;;;;;;5035484;28;20072;-81
2022/08/04 07:47:56;;;;;;;4.40;2.70;;;30.00;1.00;;;;;;5035316;28;20486;-82
2022/08/04 07:50:23;;;;;;;2.38;2.17;;;30.10;1.00;;;;;;5035482;28;20028;-81
2022/08/04 07:52:49;;;;;;;3.45;2.65;;;30.10;1.00;;;;;;5035741;28;20032;-81
2022/08/04 07:55:15;;;;;;;2.67;2.30;;;30.10;1.00;;;;;;5034106;28;20390;-81
2022/08/04 07:57:41;;;;;;;3.35;2.42;;;30.10;1.00;;;;;;5035532;28;20025;-82
2022/08/04 08:00:09;;;;;;;3.03;2.60;;;30.20;1.00;;;;;;5035158;28;20482;-81
2022/08/04 08:02:35;;;;;;;4.57;2.63;;;30.30;1.00;;;;;;5035396;28;20473;-81
2022/08/04 08:05:01;;;;;;;3.10;2.58;;;30.30;1.00;;;;;;5035330;28;20096;-81
2022/08/04 08:07:27;;;;;;;3.15;2.60;;;30.20;1.00;;;;;;5035331;28;20113;-81
2022/08/04 08:09:53;;;;;;;2.85;2.58;;;30.40;1.00;;;;;;5035107;28;20028;-81
2022/08/04 08:12:19;;;;;;;2.80;2.60;;;30.50;1.00;;;;;;5035044;28;20035;-81
2022/08/04 08:14:45;;;;;;;4.35;2.47;;;30.70;1.00;;;;;;5035436;28;20036;-82
2022/08/04 08:17:11;;;;;;;2.95;2.65;;;30.70;1.00;;;;;;5035974;28;20025;-81
2022/08/04 08:19:37;;;;;;;3.40;2.65;;;30.80;1.00;;;;;;5034921;28;20025;-82
2022/08/04 08:22:04;;;;;;;4.10;2.80;;;30.70;1.00;;;;;;5034844;28;20501;-81
2022/08/04 08:24:33;;;;;;;2.63;2.40;;;30.70;1.00;;;;;;5034847;28;20017;-81
2022/08/04 08:27:03;;;;;;;4.88;2.60;;;30.80;1.00;;;;;;5035071;28;20387;-81
2022/08/04 08:29:29;;;;;;;8.18;2.35;;;30.80;1.00;;;;;;5034429;28;20557;-81
2022/08/04 08:31:55;;;;;;;2.90;2.60;;;30.80;1.00;;;;;;5033811;28;20026;-81
2022/08/04 08:34:21;;;;;;;4.40;2.40;;;30.70;1.00;;;;;;5034651;28;20471;-82
2022/08/04 08:36:55;;;;;;;2.67;2.47;;;30.90;1.00;;;;;;5031353;28;20315;-82
2022/08/04 08:39:30;;;;;;;3.80;2.50;;;30.90;1.00;;;;;;5025198;28;20453;-81
2022/08/04 08:42:24;;;;;;;2.42;2.22;;;31.10;1.00;;;;;;5032159;28;20053;-82
2022/08/04 08:45:23;;;;;;;2.92;2.10;;;31.00;1.00;;;;;;5013334;28;20030;-82
2022/08/04 08:48:06;;;;;;;2.55;2.22;;;31.30;1.00;;;;;;5028660;28;20036;-81
2022/08/04 08:50:59;;;;;;;4.38;2.30;;;31.20;1.00;;;;;;5034379;28;20087;-83
2022/08/04 08:53:35;;;;;;;3.13;2.83;;;31.30;1.00;;;;;;5033302;28;20048;-81
2022/08/04 08:56:19;;;;;;;3.53;2.30;;;31.30;1.00;;;;;;5034403;28;20029;-82
2022/08/04 08:58:44;;;;;;;4.90;2.30;;;31.40;1.00;;;;;;5034320;28;20036;-81
2022/08/04 09:01:34;;;;;;;4.25;2.03;;;31.50;1.00;;;;;;5033906;28;20025;-81
2022/08/04 09:04:50;;;;;;;3.28;2.42;;;31.60;1.00;;;;;;5034304;28;20034;-81
2022/08/04 09:07:37;;;;;;;4.95;2.42;;;31.70;1.00;;;;;;4972693;28;20126;-82
2022/08/04 09:10:12;;;;;;;3.63;2.08;;;32.00;1.00;;;;;;4973542;28;20151;-82
2022/08/04 09:13:07;;;;;;;3.50;2.33;;;32.20;1.00;;;;;;4972606;28;20057;-81
2022/08/04 09:15:57;;;;;;;2.22;2.00;;;32.00;1.00;;;;;;4972534;28;20046;-81
2022/08/04 09:18:42;;;;;;;4.05;2.22;;;32.10;1.00;;;;;;4972862;28;20450;-81
2022/08/04 09:21:30;;;;;;;2.63;2.15;;;32.30;1.00;;;;;;4972838;28;20570;-81
2022/08/04 09:24:14;;;;;;;2.38;1.92;;;32.70;1.00;;;;;;4972680;28;20050;-82
2022/08/04 09:26:58;;;;;;;1.95;1.85;;;32.40;1.00;;;;;;4973156;28;20460;-81
2022/08/04 09:29:27;;;;;;;2.30;1.90;;;32.40;1.00;;;;;;4971901;28;20078;-81
2022/08/04 09:32:22;;;;;;;5.60;2.15;;;32.50;1.00;;;;;;4956567;28;20027;-81
2022/08/04 09:35:18;;;;;;;4.88;1.95;;;32.70;1.00;;;;;;4973034;28;20038;-81
2022/08/04 09:38:14;;;;;;;2.35;2.10;;;33.20;1.00;;;;;;4972561;28;20097;-81
2022/08/04 09:41:05;;;;;;;2.60;1.77;;;33.30;1.00;;;;;;4956476;28;20455;-81
2022/08/04 09:43:55;;;;;;;2.45;2.10;;;33.10;1.00;;;;;;5026447;28;20033;-81
2022/08/04 09:46:47;;;;;;;1.80;1.70;;;33.00;1.00;;;;;;5033375;28;20037;-81
2022/08/04 09:49:22;;;;;;;2.33;1.95;;;33.10;1.00;;;;;;4953027;29;20471;-81
2022/08/04 09:51:53;;;;;;;3.20;2.05;;;33.10;1.00;;;;;;4952813;29;20512;-82
2022/08/04 09:54:41;;;;;;;2.35;2.15;;;33.40;1.00;;;;;;4953218;29;20517;-82
2022/08/04 09:57:15;;;;;;;3.75;2.22;;;33.60;1.00;;;;;;4952684;28;20035;-82
2022/08/04 10:00:01;;;;;;;3.20;2.00;;;33.50;1.00;;;;;;4952675;29;20043;-82
2022/08/04 10:02:37;;;;;;;4.13;2.38;;;33.60;1.00;;;;;;4952717;29;20035;-82
2022/08/04 10:05:10;;;;;;;5.00;2.30;;;33.50;1.00;;;;;;4952534;29;20054;-81
2022/08/04 10:08:02;;;;;;;3.40;2.17;;;33.50;1.00;;;;;;4953083;29;20042;-82
2022/08/04 10:10:41;;;;;;;3.33;2.00;;;33.50;1.00;;;;;;4953247;29;20455;-82
2022/08/04 10:13:26;;;;;;;3.70;2.25;;;33.70;1.00;;;;;;4952240;29;20082;-82
2022/08/04 10:16:19;;;;;;;3.10;2.10;;;33.70;1.00;;;;;;4952056;29;20435;-82
2022/08/04 10:18:55;;;;;;;2.30;2.08;;;33.80;1.00;;;;;;4951663;28;20500;-82
2022/08/04 10:21:35;;;;;;;2.40;2.30;;;34.00;1.00;;;;;;4949210;29;20065;-82
2022/08/04 10:24:20;;;;;;;2.42;2.20;;;33.80;1.00;;;;;;4951795;29;20095;-81
2022/08/04 10:27:15;;;;;;;4.07;2.20;;;33.90;1.00;;;;;;4989349;28;20042;-82
2022/08/04 10:29:47;;;;;;;2.30;2.10;;;34.20;1.00;;;;;;5023136;28;20109;-81
2022/08/04 10:32:32;;;;;;;3.00;2.30;;;34.40;1.00;;;;;;5016295;28;20068;-82
2022/08/04 10:35:14;;;;;;;3.10;2.10;;;34.40;1.00;;;;;;5021865;28;20045;-82
2022/08/04 10:37:40;;;;;;;2.60;2.40;;;34.30;1.00;;;;;;5016897;28;20053;-82
2022/08/04 10:43:10;;;;;;;2.60;2.40;;;34.40;1.00;;;;;;5023066;28;20036;-81
2022/08/04 10:45:44;;;;;;;3.15;2.03;;;34.50;1.00;;;;;;5024133;28;20486;-82
2022/08/04 10:48:35;;;;;;;3.28;2.05;;;34.70;1.00;;;;;;5024068;28;20053;-82
2022/08/04 10:51:20;;;;;;;3.97;2.35;;;34.70;1.00;;;;;;4968383;28;20043;-82
2022/08/04 10:53:52;;;;;;;3.35;2.22;;;34.60;1.00;;;;;;4968567;28;20507;-82
2022/08/04 10:56:30;;;;;;;3.05;2.38;;;34.80;1.00;;;;;;4955683;28;20040;-82
2022/08/04 10:59:02;;;;;;;4.28;2.40;;;34.90;1.00;;;;;;4952633;28;20396;-82
2022/08/04 11:01:35;;;;;;;2.42;2.22;;;34.80;1.00;;;;;;4951311;29;20506;-82
2022/08/04 11:04:08;;;;;;;6.75;2.47;;;34.90;1.00;;;;;;4952651;28;20030;-82
2022/08/04 11:06:35;;;;;;;8.48;2.53;;;35.20;1.00;;;;;;4966228;28;20121;-83
2022/08/04 11:09:04;;;;;;;5.57;2.63;;;35.40;1.00;;;;;;4969560;28;20043;-82
2022/08/04 11:11:40;;;;;;;5.20;2.40;;;35.70;1.00;;;;;;4955910;28;20038;-81
2022/08/04 11:14:16;;;;;;;2.45;2.15;;;35.80;1.00;;;;;;4951395;28;20059;-82
2022/08/04 11:17:02;;;;;;;2.72;2.53;;;36.50;1.00;;;;;;4968144;28;20041;-84
2022/08/04 11:19:59;;;;;;;6.78;2.75;;;38.80;1.00;;;;;;4970698;28;20447;-83
2022/08/04 11:22:27;;;;;;;3.25;2.70;;;41.60;1.00;;;;;;4970089;28;20030;-83
2022/08/04 11:25:18;;;;;;;5.38;2.55;;;41.90;1.00;;;;;;4969590;28;20027;-83
2022/08/04 11:28:17;;;;;;;2.55;2.17;;;43.60;1.00;;;;;;4975078;28;20045;-83
2022/08/04 11:31:04;;;;;;;7.82;3.00;;;44.40;1.00;;;;;;5021605;28;20533;-83
2022/08/04 11:33:47;;;;;;;2.63;2.40;;;45.10;1.00;;;;;;5031987;28;20037;-83
2022/08/04 11:36:22;;;;;;;3.95;2.50;;;43.40;1.00;;;;;;5029786;28;20033;-84
2022/08/04 11:39:10;;;;;;;2.60;2.40;;;45.40;1.00;;;;;;5012095;28;20026;-83
2022/08/04 11:41:39;;;;;;;3.45;2.13;;;45.20;1.00;;;;;;5015127;28;20029;-83
2022/08/04 11:44:07;;;;;;;6.65;2.25;;;46.00;99.90;;;;;;5031770;28;20110;-84
2022/08/04 11:46:45;;;;;;;3.20;2.38;;;46.70;99.90;;;;;;5031256;28;20022;-84
2022/08/04 11:49:22;;;;;;;3.00;2.47;;;46.90;99.90;;;;;;5030392;28;20041;-84
2022/08/04 11:51:50;;;;;;;2.70;2.50;;;44.70;99.90;;;;;;5032095;28;20545;-83
2022/08/04 11:54:17;;;;;;;2.40;2.20;;;44.80;99.90;;;;;;5030988;28;20037;-84
2022/08/04 11:56:45;;;;;;;2.40;2.20;;;45.40;99.90;;;;;;5031863;28;20017;-84
2022/08/04 11:59:10;;;;;;;4.10;2.45;;;45.60;99.90;;;;;;5031527;28;20031;-84
2022/08/04 12:02:11;;;;;;;2.42;2.33;;;45.80;99.90;;;;;;5031462;28;20037;-84
2022/08/04 12:04:44;;;;;;;2.78;2.28;;;48.50;99.90;;;;;;5031599;28;20371;-84
2022/08/04 12:07:21;;;;;;;2.70;2.50;;;46.80;99.90;;;;;;5031838;28;20028;-82
2022/08/04 12:10:20;;;;;;;4.55;2.38;;;47.20;99.90;;;;;;5029341;28;20393;-82
2022/08/04 12:13:09;;;;;;;2.70;2.40;;;48.30;99.90;;;;;;5031893;28;20033;-82
2022/08/04 12:15:45;;;;;;;2.53;2.33;;;50.00;99.90;;;;;;5030435;28;20030;-82
2022/08/04 12:18:22;;;;;;;2.63;2.40;;;49.10;99.90;;;;;;5013473;28;20485;-82
2022/08/04 12:20:58;;;;;;;3.25;2.40;;;47.40;99.90;;;;;;5014899;28;20106;-82
2022/08/04 12:23:31;;;;;;;2.78;2.28;;;48.00;99.90;;;;;;5033571;28;20100;-82
2022/08/04 12:26:02;;;;;;;4.10;2.33;;;49.80;99.90;;;;;;5034888;28;20037;-82
2022/08/04 12:28:38;;;;;;;2.55;2.35;;;50.40;99.90;;;;;;5034672;28;20489;-82
2022/08/04 12:31:13;;;;;;;2.58;2.40;;;50.10;99.90;;;;;;5022955;28;20133;-82
2022/08/04 12:33:54;;;;;;;2.92;2.40;;;50.40;99.90;;;;;;5017970;28;20410;-82
2022/08/04 12:36:44;;;;;;;4.82;2.40;;;49.10;99.90;;;;;;5033388;28;20515;-82
2022/08/04 12:39:15;;;;;;;2.65;2.33;;;47.40;99.90;;;;;;5033808;28;20030;-82
2022/08/04 12:41:50;;;;;;;2.50;2.30;;;48.70;99.90;;;;;;5034209;28;20405;-81
2022/08/04 12:44:16;;;;;;;2.72;2.22;;;49.70;99.90;;;;;;5034472;28;20033;-82
2022/08/04 12:46:45;;;;;;;4.00;2.53;;;49.50;99.90;;;;;;5034446;28;20033;-82
2022/08/04 12:49:12;;;;;;;2.63;2.35;;;48.70;99.90;;;;;;5034768;28;20478;-82
2022/08/04 12:51:42;;;;;;;3.85;2.55;;;48.10;99.90;;;;;;5034413;28;20052;-82
2022/08/04 12:54:10;;;;;;;2.58;2.20;;;45.90;99.90;;;;;;5034443;28;20033;-83
2022/08/04 12:56:37;;;;;;;2.40;2.25;;;46.90;99.90;;;;;;5033811;28;20105;-83
2022/08/04 12:59:07;;;;;;;2.58;2.40;;;46.80;99.90;;;;;;5033903;28;20030;-82
2022/08/04 13:01:34;;;;;;;2.75;2.30;;;46.60;99.90;;;;;;5033677;28;20037;-82
2022/08/04 13:04:10;;;;;;;2.30;2.10;;;46.50;99.90;;;;;;5034004;28;20057;-82
2022/08/04 13:06:41;;;;;;;2.47;2.28;;;47.10;99.90;;;;;;5033050;28;20022;-83
2022/08/04 13:09:10;;;;;;;2.45;2.25;;;47.30;99.90;;;;;;5033971;28;20033;-82
2022/08/04 13:11:39;;;;;;;2.38;2.15;;;46.80;99.90;;;;;;5033912;28;20020;-82
2022/08/04 13:14:06;;;;;;;2.30;2.10;;;47.50;99.90;;;;;;5030527;28;20078;-82
2022/08/04 13:16:33;;;;;;;4.07;2.13;;;47.70;99.90;;;;;;5033152;28;20614;-82
2022/08/04 13:18:59;;;;;;;3.60;2.20;;;48.10;99.90;;;;;;5030399;28;20036;-82
2022/08/04 13:21:28;;;;;;;2.53;2.05;;;48.00;99.90;;;;;;5014664;28;20367;-82
2022/08/04 13:24:02;;;;;;;4.22;2.45;;;47.50;99.90;;;;;;5033403;28;20033;-82
2022/08/04 13:26:29;;;;;;;2.20;2.10;;;47.80;99.90;;;;;;5033431;28;20049;-82
2022/08/04 13:28:59;;;;;;;2.33;2.20;;;45.40;99.90;;;;;;5032830;28;20033;-82
2022/08/04 13:31:27;;;;;;;3.10;2.15;;;45.90;99.90;;;;;;5012975;28;20033;-82
2022/08/04 13:34:04;;;;;;;2.45;2.17;;;46.20;99.90;;;;;;5021988;28;20053;-83
2022/08/04 13:36:31;;;;;;;2.30;2.13;;;46.50;99.90;;;;;;5022711;28;20108;-82
2022/08/04 13:39:01;;;;;;;2.78;2.33;;;46.40;99.90;;;;;;5033371;28;20064;-82
2022/08/04 13:41:29;;;;;;;2.38;2.17;;;46.70;99.90;;;;;;5033268;28;20022;-82
2022/08/04 13:43:57;;;;;;;2.13;1.92;;;45.80;99.90;;;;;;5033416;28;20060;-82
2022/08/04 13:46:30;;;;;;;2.47;2.30;;;46.00;99.90;;;;;;5033593;28;20021;-82
2022/08/04 13:48:57;;;;;;;2.25;2.05;;;45.10;99.90;;;;;;5033014;28;20367;-82